createdAt,value
2023-04-12T00:00:46.049Z,66.84
2023-04-12T00:03:14.139Z,68.06
2023-04-12T00:05:46.913Z,68.32
2023-04-12T00:08:15.817Z,67.66
2023-04-12T00:10:43.745Z,68.31
2023-04-12T00:13:11.737Z,69.09
2023-04-12T00:15:39.596Z,68.12
2023-04-12T00:18:07.490Z,68.32
2023-04-12T00:20:35.396Z,68.42
2023-04-12T00:23:04.630Z,68.99
2023-04-12T00:25:32.543Z,68.07
2023-04-12T00:28:00.730Z,68.85
2023-04-12T00:30:28.607Z,68.94
2023-04-12T00:32:56.529Z,68.55
2023-04-12T00:35:26.769Z,68.90
2023-04-12T00:37:54.821Z,68.58
2023-04-12T00:40:24.272Z,69.54
2023-04-12T00:42:52.143Z,68.80
2023-04-12T00:45:21.342Z,68.84
2023-04-12T00:47:49.760Z,68.70
2023-04-12T00:50:18.593Z,68.59
2023-04-12T00:52:47.113Z,68.94
2023-04-12T00:55:15.998Z,68.95
2023-04-12T00:57:45.339Z,68.36
2023-04-12T01:00:14.080Z,68.93
2023-04-12T01:02:47.941Z,68.18
2023-04-12T01:05:22.131Z,68.15
2023-04-12T01:08:05.362Z,69.22
2023-04-12T01:10:42.770Z,68.99
2023-04-12T01:13:26.445Z,69.13
2023-04-12T01:16:00.939Z,68.95
2023-04-12T01:18:34.774Z,67.98
2023-04-12T01:21:08.837Z,69.20
2023-04-12T01:23:53.006Z,68.57
2023-04-12T01:26:34.246Z,68.87
2023-04-12T01:29:10.972Z,69.01
2023-04-12T01:31:42.205Z,68.25
2023-04-12T01:34:12.976Z,68.69
2023-04-12T01:36:42.145Z,68.45
2023-04-12T01:39:10.619Z,69.23
2023-04-12T01:41:41.885Z,69.24
2023-04-12T01:44:14.131Z,69.38
2023-04-12T01:46:43.180Z,68.46
2023-04-12T01:49:13.149Z,69.11
2023-04-12T01:51:51.539Z,69.38
2023-04-12T01:54:23.231Z,68.53
2023-04-12T01:56:57.730Z,69.00
2023-04-12T01:59:31.646Z,69.26
2023-04-12T02:01:59.807Z,69.38
2023-04-12T02:04:28.716Z,69.91
2023-04-12T02:06:57.182Z,69.75
2023-04-12T02:09:25.110Z,69.42
2023-04-12T02:11:52.970Z,69.51
2023-04-12T02:14:21.882Z,69.79
2023-04-12T02:16:54.787Z,70.11
2023-04-12T02:19:22.834Z,70.07
2023-04-12T02:21:51.400Z,69.97
2023-04-12T02:24:19.320Z,70.35
2023-04-12T02:26:49.671Z,69.77
2023-04-12T02:29:17.947Z,70.95
2023-04-12T02:31:48.375Z,70.85
2023-04-12T02:34:19.450Z,71.37
2023-04-12T02:36:52.484Z,71.70
2023-04-12T02:39:22.173Z,72.87
2023-04-12T02:41:52.771Z,73.86
2023-04-12T02:44:21.338Z,73.92
2023-04-12T02:47:05.767Z,74.46
2023-04-12T02:49:36.559Z,74.43
2023-04-12T02:52:05.974Z,74.32
2023-04-12T02:54:42.165Z,73.71
2023-04-12T02:57:16.691Z,73.58
2023-04-12T02:59:47.460Z,73.27
2023-04-12T03:02:34.948Z,73.45
2023-04-12T03:05:09.583Z,72.31
2023-04-12T03:07:43.621Z,72.35
2023-04-12T03:10:12.773Z,71.84
2023-04-12T03:12:46.201Z,70.85
2023-04-12T03:15:23.350Z,70.19
2023-04-12T03:17:52.800Z,69.81
2023-04-12T03:20:25.465Z,70.75
2023-04-12T03:23:02.232Z,70.75
2023-04-12T03:25:32.267Z,70.59
2023-04-12T03:28:12.724Z,70.56
2023-04-12T03:30:52.276Z,70.56
2023-04-12T03:33:23.218Z,70.70
2023-04-12T03:35:56.698Z,69.79
2023-04-12T03:38:25.360Z,70.18
2023-04-12T03:40:54.476Z,70.75
2023-04-12T03:43:35.662Z,69.90
2023-04-12T03:46:07.287Z,69.56
2023-04-12T03:48:36.157Z,69.48
2023-04-12T03:51:08.411Z,69.86
2023-04-12T03:53:39.486Z,71.02
2023-04-12T03:56:09.853Z,71.08
2023-04-12T03:58:37.781Z,70.03
2023-04-12T04:01:09.354Z,70.06
2023-04-12T04:03:38.811Z,70.74
2023-04-12T04:06:19.436Z,70.48
2023-04-12T04:08:47.931Z,69.71
2023-04-12T04:11:16.317Z,70.05
2023-04-12T04:13:49.377Z,69.14
2023-04-12T04:16:20.803Z,70.34
2023-04-12T04:18:50.635Z,70.40
2023-04-12T04:21:23.829Z,70.67
2023-04-12T04:23:58.594Z,70.38
2023-04-12T04:26:33.285Z,70.51
2023-04-12T04:29:21.635Z,69.84
2023-04-12T04:31:50.105Z,70.01
2023-04-12T04:34:19.278Z,70.32
2023-04-12T04:36:50.601Z,70.33
2023-04-12T04:39:24.691Z,69.88
2023-04-12T04:41:54.780Z,70.16
2023-04-12T04:44:47.726Z,70.72
2023-04-12T04:47:16.821Z,70.57
2023-04-12T04:49:45.784Z,70.61
2023-04-12T04:52:25.555Z,70.80
2023-04-12T04:54:57.936Z,70.10
2023-04-12T04:57:29.849Z,70.51
2023-04-12T04:59:58.164Z,69.80
2023-04-12T05:02:26.786Z,69.41
2023-04-12T05:04:56.305Z,68.73
2023-04-12T05:07:28.718Z,68.64
2023-04-12T05:09:56.904Z,68.57
2023-04-12T05:12:24.851Z,68.80
2023-04-12T05:15:10.610Z,69.42
2023-04-12T05:17:39.511Z,69.96
2023-04-12T05:20:08.794Z,69.87
2023-04-12T05:22:38.607Z,70.17
2023-04-12T05:25:07.728Z,70.23
2023-04-12T05:27:41.566Z,70.46
2023-04-12T05:30:15.610Z,70.64
2023-04-12T05:32:43.513Z,70.66
2023-04-12T05:35:12.097Z,70.99
2023-04-12T05:37:43.628Z,70.34
2023-04-12T05:40:12.164Z,70.23
2023-04-12T05:42:40.153Z,70.74
2023-04-12T05:45:09.529Z,70.06
2023-04-12T05:47:38.693Z,70.09
2023-04-12T05:50:07.895Z,70.38
2023-04-12T05:52:35.901Z,70.72
2023-04-12T05:55:06.947Z,71.03
2023-04-12T05:57:36.931Z,71.38
2023-04-12T06:00:08.378Z,70.66
2023-04-12T06:02:40.910Z,70.55
2023-04-12T06:05:11.036Z,70.85
2023-04-12T06:07:40.294Z,69.79
2023-04-12T06:10:10.959Z,69.73
2023-04-12T06:12:38.912Z,69.53
2023-04-12T06:15:08.271Z,69.04
2023-04-12T06:17:36.385Z,69.13
2023-04-12T06:20:05.961Z,69.09
2023-04-12T06:22:33.940Z,69.19
2023-04-12T06:25:02.139Z,69.24
2023-04-12T06:27:31.762Z,68.41
2023-04-12T06:30:00.267Z,68.52
2023-04-12T06:32:40.178Z,66.88
2023-04-12T06:35:08.806Z,65.94
2023-04-12T06:37:36.670Z,64.65
2023-04-12T06:40:04.970Z,64.42
2023-04-12T06:42:34.649Z,63.60
2023-04-12T06:45:02.625Z,63.22
2023-04-12T06:47:31.633Z,63.19
2023-04-12T06:49:59.573Z,63.17
2023-04-12T06:52:27.764Z,63.09
2023-04-12T06:54:57.233Z,61.78
2023-04-12T06:57:25.162Z,61.96
2023-04-12T06:59:54.411Z,61.86
2023-04-12T07:02:22.484Z,61.63
2023-04-12T07:04:53.109Z,61.27
2023-04-12T07:07:21.562Z,60.08
2023-04-12T07:09:49.461Z,60.38
2023-04-12T07:12:17.306Z,60.84
2023-04-12T07:14:45.247Z,59.37
2023-04-12T07:17:14.580Z,59.55
2023-04-12T07:19:44.007Z,59.00
2023-04-12T07:22:13.575Z,59.64
2023-04-12T07:24:41.999Z,59.48
2023-04-12T07:27:11.088Z,59.18
2023-04-12T07:29:38.974Z,58.57
2023-04-12T07:32:07.671Z,58.91
2023-04-12T07:34:37.707Z,58.13
2023-04-12T07:37:06.103Z,57.60
2023-04-12T07:39:34.900Z,57.67
2023-04-12T07:42:02.802Z,57.46
2023-04-12T07:44:31.791Z,57.68
2023-04-12T07:46:59.731Z,57.19
2023-04-12T07:49:28.045Z,56.76
2023-04-12T07:51:57.523Z,56.35
2023-04-12T07:54:27.676Z,56.23
2023-04-12T07:56:59.684Z,56.66
2023-04-12T07:59:27.614Z,56.18
2023-04-12T08:01:55.732Z,56.55
2023-04-12T08:04:23.680Z,56.60
2023-04-12T08:06:51.528Z,56.48
2023-04-12T08:09:20.961Z,56.68
2023-04-12T08:11:48.910Z,56.50
2023-04-12T08:14:16.818Z,55.29
2023-04-12T08:16:44.699Z,56.00
2023-04-12T08:19:12.484Z,55.66
2023-04-12T08:21:40.352Z,55.25
2023-04-12T08:24:09.128Z,54.71
2023-04-12T08:26:38.844Z,54.43
2023-04-12T08:29:06.960Z,54.86
2023-04-12T08:31:35.352Z,55.69
2023-04-12T08:34:03.322Z,55.41
2023-04-12T08:36:31.232Z,54.71
2023-04-12T08:39:02.584Z,54.45
2023-04-12T08:41:30.490Z,53.84
2023-04-12T08:44:00.709Z,54.01
2023-04-12T08:46:30.094Z,54.31
2023-04-12T08:48:58.319Z,53.88
2023-04-12T08:51:27.979Z,52.51
2023-04-12T08:53:56.327Z,52.62
2023-04-12T08:56:25.029Z,53.31
2023-04-12T08:58:53.964Z,54.02
2023-04-12T09:01:23.233Z,53.15
2023-04-12T09:03:51.360Z,53.49
2023-04-12T09:06:19.340Z,52.40
2023-04-12T09:08:54.638Z,52.89
2023-04-12T09:11:24.642Z,52.94
2023-04-12T09:13:52.954Z,52.76
2023-04-12T09:16:38.312Z,52.84
2023-04-12T09:19:06.810Z,51.94
2023-04-12T09:21:35.866Z,52.08
2023-04-12T09:24:10.361Z,51.81
2023-04-12T09:26:41.212Z,50.88
2023-04-12T09:29:23.954Z,50.12
2023-04-12T09:31:59.522Z,49.71
2023-04-12T09:34:28.031Z,49.90
2023-04-12T09:36:56.253Z,50.50
2023-04-12T09:39:33.091Z,50.60
2023-04-12T09:42:18.050Z,50.69
2023-04-12T09:44:54.515Z,50.72
2023-04-12T09:47:24.967Z,51.04
2023-04-12T09:49:52.932Z,51.00
2023-04-12T09:52:21.173Z,51.75
2023-04-12T09:54:49.460Z,51.06
2023-04-12T09:57:19.119Z,51.22
2023-04-12T09:59:49.754Z,50.98
2023-04-12T10:02:19.957Z,52.23
2023-04-12T10:04:49.839Z,51.48
2023-04-12T10:07:19.569Z,50.63
2023-04-12T10:09:48.246Z,50.67
2023-04-12T10:12:17.034Z,50.79
2023-04-12T10:14:45.745Z,50.26
2023-04-12T10:17:14.416Z,51.00
2023-04-12T10:19:44.381Z,50.68
2023-04-12T10:22:19.305Z,50.64
2023-04-12T10:24:47.962Z,50.11
2023-04-12T10:27:26.297Z,50.69
2023-04-12T10:29:54.495Z,50.29
2023-04-12T10:32:23.963Z,50.53
2023-04-12T10:34:58.999Z,50.33
2023-04-12T10:38:02.116Z,50.40
2023-04-12T10:40:31.524Z,50.02
2023-04-12T10:43:28.760Z,49.60
2023-04-12T10:45:57.663Z,49.30
2023-04-12T10:48:33.236Z,50.34
2023-04-12T10:51:17.974Z,50.02
2023-04-12T10:53:47.848Z,50.08
2023-04-12T10:56:37.148Z,49.46
2023-04-12T10:59:05.726Z,50.04
2023-04-12T11:01:42.049Z,50.38
2023-04-12T11:04:18.071Z,51.36
2023-04-12T11:07:02.701Z,50.52
2023-04-12T11:09:50.962Z,50.42
2023-04-12T11:12:29.047Z,51.40
2023-04-12T11:15:02.138Z,51.37
2023-04-12T11:17:55.368Z,50.48
2023-04-12T11:20:23.683Z,50.86
2023-04-12T11:22:52.109Z,50.14
2023-04-12T11:25:21.421Z,50.08
2023-04-12T11:27:53.410Z,50.19
2023-04-12T11:30:23.597Z,50.41
2023-04-12T11:32:51.633Z,50.95
2023-04-12T11:35:24.392Z,51.20
2023-04-12T11:37:52.467Z,50.61
2023-04-12T11:40:23.405Z,49.76
2023-04-12T11:42:51.435Z,49.74
2023-04-12T11:45:20.647Z,50.08
2023-04-12T11:47:48.721Z,49.31
2023-04-12T11:50:29.593Z,48.71
2023-04-12T11:53:10.835Z,48.25
2023-04-12T11:55:40.313Z,48.88
2023-04-12T11:58:08.691Z,49.12
2023-04-12T12:00:36.859Z,48.04
2023-04-12T12:03:08.379Z,48.46
2023-04-12T12:05:38.625Z,48.02
2023-04-12T12:08:08.516Z,46.87
2023-04-12T12:10:49.214Z,46.31
2023-04-12T12:13:25.986Z,45.69
2023-04-12T12:15:54.244Z,45.08
2023-04-12T12:18:27.328Z,45.22
2023-04-12T12:20:55.713Z,45.43
2023-04-12T12:23:31.215Z,45.10
2023-04-12T12:26:14.203Z,45.17
2023-04-12T12:28:51.366Z,45.74
2023-04-12T12:31:22.202Z,44.54
2023-04-12T12:33:52.762Z,44.86
2023-04-12T12:36:21.315Z,44.79
2023-04-12T12:38:51.395Z,44.77
2023-04-12T12:41:20.982Z,44.48
2023-04-12T12:43:52.054Z,44.11
2023-04-12T12:46:21.744Z,44.11
2023-04-12T12:48:49.788Z,44.01
2023-04-12T12:51:19.627Z,43.40
2023-04-12T12:53:48.101Z,43.39
2023-04-12T12:56:17.120Z,43.63
2023-04-12T12:58:45.296Z,43.38
2023-04-12T13:01:14.515Z,43.32
2023-04-12T13:03:42.731Z,41.53
2023-04-12T13:06:10.889Z,41.15
2023-04-12T13:08:38.741Z,41.27
2023-04-12T13:11:07.293Z,41.37
2023-04-12T13:13:35.240Z,41.67
2023-04-12T13:16:03.124Z,41.55
2023-04-12T13:18:32.383Z,41.70
2023-04-12T13:21:00.267Z,42.00
2023-04-12T13:23:28.221Z,41.64
2023-04-12T13:25:56.166Z,41.47
2023-04-12T13:28:24.190Z,41.42
2023-04-12T13:30:52.192Z,40.51
2023-04-12T13:33:22.186Z,40.02
2023-04-12T13:35:51.914Z,40.54
2023-04-12T13:38:19.801Z,39.74
2023-04-12T13:40:47.753Z,40.22
2023-04-12T13:43:16.640Z,39.89
2023-04-12T13:45:44.856Z,38.80
2023-04-12T13:48:13.316Z,38.46
2023-04-12T13:50:41.423Z,38.44
2023-04-12T13:53:10.777Z,38.62
2023-04-12T13:55:38.656Z,37.54
2023-04-12T13:58:06.965Z,37.69
2023-04-12T14:00:34.934Z,36.81
2023-04-12T14:03:03.105Z,36.60
2023-04-12T14:05:31.248Z,36.93
2023-04-12T14:07:59.125Z,36.62
2023-04-12T14:10:28.490Z,36.35
2023-04-12T14:12:56.303Z,35.70
2023-04-12T14:15:24.353Z,35.45
2023-04-12T14:17:52.363Z,35.40
2023-04-12T14:20:20.583Z,35.15
2023-04-12T14:22:48.515Z,35.62
2023-04-12T14:25:16.540Z,34.95
2023-04-12T14:27:45.802Z,34.79
2023-04-12T14:30:15.070Z,34.76
2023-04-12T14:32:45.875Z,33.57
2023-04-12T14:35:15.174Z,33.29
2023-04-12T14:37:43.082Z,32.46
2023-04-12T14:40:11.246Z,31.45
2023-04-12T14:42:39.106Z,31.37
2023-04-12T14:45:10.128Z,31.26
2023-04-12T14:47:38.161Z,31.28
2023-04-12T14:50:06.847Z,31.38
2023-04-12T14:52:35.134Z,30.78
2023-04-12T14:55:03.870Z,30.88
2023-04-12T14:57:32.927Z,30.69
2023-04-12T15:00:01.294Z,29.95
2023-04-12T15:02:31.093Z,30.44
2023-04-12T15:04:59.459Z,30.96
2023-04-12T15:07:27.426Z,30.40
2023-04-12T15:09:57.886Z,29.91
2023-04-12T15:12:25.948Z,30.00
2023-04-12T15:14:53.953Z,29.98
2023-04-12T15:17:21.931Z,30.23
2023-04-12T15:19:51.298Z,30.31
2023-04-12T15:22:19.273Z,29.92
2023-04-12T15:24:47.161Z,29.51
2023-04-12T15:27:15.136Z,29.35
2023-04-12T15:29:43.061Z,29.51
2023-04-12T15:32:11.429Z,29.02
2023-04-12T15:34:39.437Z,28.66
2023-04-12T15:37:09.815Z,28.45
2023-04-12T15:39:37.791Z,28.78
2023-04-12T15:42:05.931Z,28.43
2023-04-12T15:44:34.050Z,28.69
2023-04-12T15:47:11.182Z,29.20
2023-04-12T15:49:39.850Z,29.14
2023-04-12T15:52:09.125Z,28.91
2023-04-12T15:54:43.723Z,28.80
2023-04-12T15:57:12.303Z,28.81
2023-04-12T15:59:41.913Z,28.85
2023-04-12T16:02:10.531Z,28.87
2023-04-12T16:04:39.211Z,28.28
2023-04-12T16:07:09.003Z,28.08
2023-04-12T16:09:39.659Z,28.55
2023-04-12T16:12:08.063Z,29.11
2023-04-12T16:14:36.819Z,29.24
2023-04-12T16:17:04.871Z,29.93
2023-04-12T16:19:33.331Z,30.73
2023-04-12T16:22:01.737Z,30.89
2023-04-12T16:24:31.042Z,30.55
2023-04-12T16:26:59.225Z,30.17
2023-04-12T16:29:27.053Z,30.46
2023-04-12T16:31:55.089Z,30.82
2023-04-12T16:34:23.254Z,31.03
2023-04-12T16:36:52.916Z,31.19
2023-04-12T16:39:20.800Z,31.98
2023-04-12T16:41:50.040Z,32.61
2023-04-12T16:44:19.141Z,33.54
2023-04-12T16:46:48.006Z,33.79
2023-04-12T16:49:19.013Z,33.90
2023-04-12T16:51:47.711Z,34.03
2023-04-12T16:54:15.637Z,34.21
2023-04-12T16:56:44.393Z,34.29
2023-04-12T16:59:13.764Z,34.10
2023-04-12T17:01:42.299Z,34.44
2023-04-12T17:04:10.568Z,34.86
2023-04-12T17:06:39.624Z,35.41
2023-04-12T17:09:08.542Z,35.92
2023-04-12T17:11:36.490Z,36.12
2023-04-12T17:14:04.438Z,36.69
2023-04-12T17:16:33.776Z,36.86
2023-04-12T17:19:01.799Z,37.26
2023-04-12T17:21:30.448Z,37.57
2023-04-12T17:23:58.620Z,37.96
2023-04-12T17:26:27.251Z,38.12
2023-04-12T17:28:55.963Z,38.32
2023-04-12T17:31:26.898Z,39.00
2023-04-12T17:33:56.820Z,39.41
2023-04-12T17:36:24.872Z,40.02
2023-04-12T17:38:54.260Z,40.78
2023-04-12T17:41:22.293Z,41.02
2023-04-12T17:43:50.514Z,41.59
2023-04-12T17:46:18.511Z,42.35
2023-04-12T17:48:46.427Z,42.46
2023-04-12T17:51:16.178Z,43.10
2023-04-12T17:53:44.152Z,43.40
2023-04-12T17:56:12.097Z,43.81
2023-04-12T17:58:40.095Z,43.62
2023-04-12T18:01:08.153Z,43.73
2023-04-12T18:03:36.374Z,43.94
2023-04-12T18:06:07.250Z,44.32
2023-04-12T18:08:37.538Z,43.76
2023-04-12T18:11:07.599Z,43.96
2023-04-12T18:13:35.572Z,43.51
2023-04-12T18:16:04.061Z,43.86
2023-04-12T18:18:32.017Z,43.84
2023-04-12T18:20:59.945Z,43.48
2023-04-12T18:23:27.943Z,43.86
2023-04-12T18:25:57.218Z,44.09
2023-04-12T18:28:25.700Z,43.94
2023-04-12T18:30:57.274Z,43.83
2023-04-12T18:33:27.653Z,44.12
2023-04-12T18:35:55.828Z,43.90
2023-04-12T18:38:24.134Z,44.42
2023-04-12T18:40:52.242Z,44.26
2023-04-12T18:43:21.995Z,43.73
2023-04-12T18:45:49.923Z,43.48
2023-04-12T18:48:17.922Z,43.83
2023-04-12T18:50:47.396Z,43.16
2023-04-12T18:53:15.396Z,43.31
2023-04-12T18:55:43.664Z,43.15
2023-04-12T18:58:11.706Z,43.41
2023-04-12T19:00:41.686Z,43.86
2023-04-12T19:03:09.859Z,43.95
2023-04-12T19:05:37.916Z,43.71
2023-04-12T19:08:06.731Z,43.87
2023-04-12T19:10:34.716Z,44.02
2023-04-12T19:13:02.989Z,43.80
2023-04-12T19:15:30.976Z,44.62
2023-04-12T19:18:01.426Z,44.54
2023-04-12T19:20:29.468Z,44.02
2023-04-12T19:22:58.343Z,43.92
2023-04-12T19:25:29.838Z,44.43
2023-04-12T19:27:59.130Z,44.23
2023-04-12T19:30:27.934Z,45.02
2023-04-12T19:32:55.975Z,44.85
2023-04-12T19:35:25.611Z,44.56
2023-04-12T19:37:54.616Z,44.75
2023-04-12T19:40:22.631Z,44.91
2023-04-12T19:42:50.881Z,44.80
2023-04-12T19:45:19.018Z,45.18
2023-04-12T19:47:46.950Z,44.62
2023-04-12T19:50:16.868Z,45.48
2023-04-12T19:52:47.757Z,45.42
2023-04-12T19:55:16.033Z,45.99
2023-04-12T19:57:43.996Z,45.67
2023-04-12T20:00:15.395Z,46.40
2023-04-12T20:02:43.458Z,46.47
2023-04-12T20:05:11.578Z,46.64
2023-04-12T20:07:39.931Z,46.95
2023-04-12T20:10:11.152Z,47.01
2023-04-12T20:12:39.578Z,47.64
2023-04-12T20:15:08.975Z,47.05
2023-04-12T20:17:37.098Z,47.10
2023-04-12T20:20:08.757Z,47.28
2023-04-12T20:22:36.807Z,47.18
2023-04-12T20:25:06.177Z,46.97
2023-04-12T20:27:36.660Z,47.88
2023-04-12T20:30:05.166Z,47.88
2023-04-12T20:32:33.473Z,47.40
2023-04-12T20:35:01.371Z,48.92
2023-04-12T20:37:29.619Z,48.53
2023-04-12T20:39:58.660Z,48.34
2023-04-12T20:42:26.675Z,48.64
2023-04-12T20:44:56.127Z,48.62
2023-04-12T20:47:23.972Z,49.57
2023-04-12T20:49:52.322Z,49.99
2023-04-12T20:52:20.309Z,49.91
2023-04-12T20:54:48.377Z,50.50
2023-04-12T20:57:19.530Z,51.19
2023-04-12T20:59:47.745Z,51.32
2023-04-12T21:02:17.593Z,50.24
2023-04-12T21:04:46.072Z,50.14
2023-04-12T21:07:14.296Z,50.22
2023-04-12T21:09:42.280Z,50.38
2023-04-12T21:12:11.154Z,50.07
2023-04-12T21:14:39.276Z,49.63
2023-04-12T21:17:07.304Z,49.90
2023-04-12T21:19:39.774Z,50.31
2023-04-12T21:22:08.402Z,49.71
2023-04-12T21:24:38.325Z,49.35
2023-04-12T21:27:08.325Z,49.11
2023-04-12T21:29:41.373Z,49.06
2023-04-12T21:32:10.173Z,48.50
2023-04-12T21:34:39.982Z,48.64
2023-04-12T21:37:07.892Z,48.24
2023-04-12T21:39:36.209Z,47.88
2023-04-12T21:42:04.568Z,48.35
2023-04-12T21:44:32.445Z,47.71
2023-04-12T21:47:00.357Z,47.34
2023-04-12T21:49:29.984Z,48.18
2023-04-12T21:51:59.360Z,47.86
2023-04-12T21:54:28.750Z,48.88
2023-04-12T21:56:57.388Z,48.37
2023-04-12T21:59:26.588Z,49.13
2023-04-12T22:01:54.523Z,49.86
2023-04-12T22:04:22.429Z,50.13
2023-04-12T22:06:51.508Z,50.58
2023-04-12T22:09:21.927Z,50.04
2023-04-12T22:11:50.115Z,50.30
2023-04-12T22:14:18.014Z,49.80
2023-04-12T22:16:46.753Z,49.52
2023-04-12T22:19:15.360Z,50.10
2023-04-12T22:21:43.253Z,49.90
2023-04-12T22:24:12.052Z,49.66
2023-04-12T22:26:41.229Z,50.27
2023-04-12T22:29:09.798Z,51.29
2023-04-12T22:31:38.473Z,49.90
2023-04-12T22:34:06.369Z,50.45
2023-04-12T22:36:37.408Z,50.47
2023-04-12T22:39:05.935Z,50.21
2023-04-12T22:41:33.929Z,50.95
2023-04-12T22:44:03.241Z,50.82
2023-04-12T22:46:32.375Z,50.78
2023-04-12T22:49:01.362Z,51.62
2023-04-12T22:51:29.227Z,50.35
2023-04-12T22:53:58.123Z,50.78
2023-04-12T22:56:27.024Z,51.42
2023-04-12T22:58:55.704Z,50.80
2023-04-12T23:01:25.232Z,51.09
2023-04-12T23:03:54.158Z,51.47
2023-04-12T23:06:22.028Z,51.41
2023-04-12T23:08:49.886Z,51.37
2023-04-12T23:11:17.795Z,52.00
2023-04-12T23:13:45.774Z,51.92
2023-04-12T23:16:13.784Z,52.56
2023-04-12T23:18:45.042Z,51.87
2023-04-12T23:21:12.974Z,51.75
2023-04-12T23:23:41.530Z,52.94
2023-04-12T23:26:10.782Z,52.91
2023-04-12T23:28:40.292Z,52.65
2023-04-12T23:31:08.900Z,52.24
2023-04-12T23:33:38.680Z,52.68
2023-04-12T23:36:10.398Z,51.71
2023-04-12T23:38:40.701Z,51.85
2023-04-12T23:41:12.628Z,51.71
2023-04-12T23:43:40.911Z,51.18
2023-04-12T23:46:08.799Z,51.37
2023-04-12T23:48:37.166Z,51.21
2023-04-12T23:51:06.071Z,51.65
2023-04-12T23:53:35.400Z,51.93
2023-04-12T23:56:03.266Z,52.05
2023-04-12T23:58:31.194Z,51.65
